sensor_id;sensor_type;location;lat;lon;timestamp;P1;durP1;ratioP1;P2;durP2;ratioP2
69491;SDS011;56692;52.016;4.356;2023-03-24T00:01:12;4.50;;;1.45;;
69491;SDS011;56692;52.016;4.356;2023-03-24T00:03:38;3.95;;;1.00;;
69491;SDS011;56692;52.016;4.356;2023-03-24T00:06:04;4.18;;;1.48;;
69491;SDS011;56692;52.016;4.356;2023-03-24T00:08:32;3.87;;;0.73;;
69491;SDS011;56692;52.016;4.356;2023-03-24T00:11:01;6.03;;;0.82;;
69491;SDS011;56692;52.016;4.356;2023-03-24T00:13:29;3.75;;;1.13;;
69491;SDS011;56692;52.016;4.356;2023-03-24T00:15:56;4.22;;;0.90;;
69491;SDS011;56692;52.016;4.356;2023-03-24T00:18:23;4.45;;;1.17;;
69491;SDS011;56692;52.016;4.356;2023-03-24T00:20:54;7.37;;;0.90;;
69491;SDS011;56692;52.016;4.356;2023-03-24T00:23:26;3.92;;;1.08;;
69491;SDS011;56692;52.016;4.356;2023-03-24T00:26:10;5.47;;;1.35;;
69491;SDS011;56692;52.016;4.356;2023-03-24T00:28:39;2.05;;;0.50;;
69491;SDS011;56692;52.016;4.356;2023-03-24T00:31:06;3.88;;;1.23;;
69491;SDS011;56692;52.016;4.356;2023-03-24T00:33:33;4.97;;;1.33;;
69491;SDS011;56692;52.016;4.356;2023-03-24T00:36:09;4.45;;;1.13;;
69491;SDS011;56692;52.016;4.356;2023-03-24T00:38:36;4.30;;;1.10;;
69491;SDS011;56692;52.016;4.356;2023-03-24T00:41:03;3.45;;;0.88;;
69491;SDS011;56692;52.016;4.356;2023-03-24T00:43:30;2.97;;;1.23;;
69491;SDS011;56692;52.016;4.356;2023-03-24T00:46:03;5.83;;;1.03;;
69491;SDS011;56692;52.016;4.356;2023-03-24T00:48:31;5.07;;;1.50;;
69491;SDS011;56692;52.016;4.356;2023-03-24T00:50:59;3.78;;;1.13;;
69491;SDS011;56692;52.016;4.356;2023-03-24T00:53:27;2.80;;;1.00;;
69491;SDS011;56692;52.016;4.356;2023-03-24T00:55:56;2.75;;;0.98;;
69491;SDS011;56692;52.016;4.356;2023-03-24T00:58:22;3.47;;;0.73;;
69491;SDS011;56692;52.016;4.356;2023-03-24T01:00:54;4.97;;;1.40;;
69491;SDS011;56692;52.016;4.356;2023-03-24T01:03:21;3.83;;;0.88;;
69491;SDS011;56692;52.016;4.356;2023-03-24T01:05:52;4.22;;;1.50;;
69491;SDS011;56692;52.016;4.356;2023-03-24T01:08:21;3.75;;;1.02;;
69491;SDS011;56692;52.016;4.356;2023-03-24T01:10:49;4.13;;;1.63;;
69491;SDS011;56692;52.016;4.356;2023-03-24T01:13:20;3.95;;;1.13;;
69491;SDS011;56692;52.016;4.356;2023-03-24T01:15:51;4.68;;;0.90;;
69491;SDS011;56692;52.016;4.356;2023-03-24T01:18:18;2.88;;;0.98;;
69491;SDS011;56692;52.016;4.356;2023-03-24T01:20:45;1.83;;;0.60;;
69491;SDS011;56692;52.016;4.356;2023-03-24T01:23:14;4.47;;;0.70;;
69491;SDS011;56692;52.016;4.356;2023-03-24T01:25:41;2.92;;;1.23;;
69491;SDS011;56692;52.016;4.356;2023-03-24T01:28:14;3.65;;;1.17;;
69491;SDS011;56692;52.016;4.356;2023-03-24T01:30:42;3.25;;;0.68;;
69491;SDS011;56692;52.016;4.356;2023-03-24T01:33:08;5.10;;;1.08;;
69491;SDS011;56692;52.016;4.356;2023-03-24T01:35:34;5.33;;;1.07;;
69491;SDS011;56692;52.016;4.356;2023-03-24T01:38:03;3.65;;;1.00;;
69491;SDS011;56692;52.016;4.356;2023-03-24T01:40:32;4.43;;;1.17;;
69491;SDS011;56692;52.016;4.356;2023-03-24T01:42:58;5.25;;;1.08;;
69491;SDS011;56692;52.016;4.356;2023-03-24T01:48:13;6.37;;;1.40;;
69491;SDS011;56692;52.016;4.356;2023-03-24T01:50:43;3.72;;;0.80;;
69491;SDS011;56692;52.016;4.356;2023-03-24T01:53:13;4.35;;;1.10;;
69491;SDS011;56692;52.016;4.356;2023-03-24T01:55:39;3.50;;;0.65;;
69491;SDS011;56692;52.016;4.356;2023-03-24T01:58:09;3.63;;;1.17;;
69491;SDS011;56692;52.016;4.356;2023-03-24T02:00:35;6.63;;;0.97;;
69491;SDS011;56692;52.016;4.356;2023-03-24T02:03:03;4.65;;;0.80;;
69491;SDS011;56692;52.016;4.356;2023-03-24T02:05:34;5.57;;;1.65;;
69491;SDS011;56692;52.016;4.356;2023-03-24T02:08:04;6.05;;;1.70;;
69491;SDS011;56692;52.016;4.356;2023-03-24T02:10:37;6.00;;;1.30;;
69491;SDS011;56692;52.016;4.356;2023-03-24T02:13:04;6.77;;;1.77;;
69491;SDS011;56692;52.016;4.356;2023-03-24T02:15:30;4.15;;;0.90;;
69491;SDS011;56692;52.016;4.356;2023-03-24T02:43:32;8.68;;;1.33;;
69491;SDS011;56692;52.016;4.356;2023-03-24T02:46:05;7.82;;;1.10;;
69491;SDS011;56692;52.016;4.356;2023-03-24T02:48:58;5.85;;;0.77;;
69491;SDS011;56692;52.016;4.356;2023-03-24T02:52:03;8.00;;;1.00;;
69491;SDS011;56692;52.016;4.356;2023-03-24T03:00:15;7.75;;;1.63;;
69491;SDS011;56692;52.016;4.356;2023-03-24T03:02:44;9.20;;;0.93;;
69491;SDS011;56692;52.016;4.356;2023-03-24T03:05:16;8.48;;;1.00;;
69491;SDS011;56692;52.016;4.356;2023-03-24T03:07:51;7.03;;;1.43;;
69491;SDS011;56692;52.016;4.356;2023-03-24T03:10:24;5.93;;;1.20;;
69491;SDS011;56692;52.016;4.356;2023-03-24T03:12:56;9.82;;;1.45;;
69491;SDS011;56692;52.016;4.356;2023-03-24T03:15:25;6.38;;;0.80;;
69491;SDS011;56692;52.016;4.356;2023-03-24T03:20:32;8.13;;;0.93;;
69491;SDS011;56692;52.016;4.356;2023-03-24T03:23:06;5.55;;;0.75;;
69491;SDS011;56692;52.016;4.356;2023-03-24T03:25:39;6.38;;;1.40;;
69491;SDS011;56692;52.016;4.356;2023-03-24T03:28:10;7.72;;;1.10;;
69491;SDS011;56692;52.016;4.356;2023-03-24T03:30:40;8.35;;;1.63;;
69491;SDS011;56692;52.016;4.356;2023-03-24T03:33:14;7.77;;;1.10;;
69491;SDS011;56692;52.016;4.356;2023-03-24T03:36:09;8.65;;;1.35;;
69491;SDS011;56692;52.016;4.356;2023-03-24T03:41:36;7.20;;;0.95;;
69491;SDS011;56692;52.016;4.356;2023-03-24T03:44:03;5.93;;;1.20;;
69491;SDS011;56692;52.016;4.356;2023-03-24T03:46:30;7.67;;;1.30;;
69491;SDS011;56692;52.016;4.356;2023-03-24T03:48:55;9.20;;;1.40;;
69491;SDS011;56692;52.016;4.356;2023-03-24T03:51:21;8.87;;;1.23;;
69491;SDS011;56692;52.016;4.356;2023-03-24T03:53:48;8.20;;;1.03;;
69491;SDS011;56692;52.016;4.356;2023-03-24T03:56:17;6.68;;;0.80;;
69491;SDS011;56692;52.016;4.356;2023-03-24T03:58:47;9.95;;;1.85;;
69491;SDS011;56692;52.016;4.356;2023-03-24T04:01:18;5.25;;;0.90;;
69491;SDS011;56692;52.016;4.356;2023-03-24T04:06:40;10.63;;;1.35;;
69491;SDS011;56692;52.016;4.356;2023-03-24T04:12:00;8.60;;;0.82;;
69491;SDS011;56692;52.016;4.356;2023-03-24T04:14:57;5.82;;;1.00;;
69491;SDS011;56692;52.016;4.356;2023-03-24T04:20:29;10.55;;;1.15;;
69491;SDS011;56692;52.016;4.356;2023-03-24T04:23:08;8.60;;;1.05;;
69491;SDS011;56692;52.016;4.356;2023-03-24T04:25:51;6.25;;;1.23;;
69491;SDS011;56692;52.016;4.356;2023-03-24T04:31:26;7.63;;;0.87;;
69491;SDS011;56692;52.016;4.356;2023-03-24T04:34:22;8.55;;;0.80;;
69491;SDS011;56692;52.016;4.356;2023-03-24T04:39:49;9.70;;;1.52;;
69491;SDS011;56692;52.016;4.356;2023-03-24T04:42:24;11.82;;;1.50;;
69491;SDS011;56692;52.016;4.356;2023-03-24T04:44:58;7.50;;;1.40;;
69491;SDS011;56692;52.016;4.356;2023-03-24T04:47:25;8.32;;;1.20;;
69491;SDS011;56692;52.016;4.356;2023-03-24T04:50:02;10.00;;;1.13;;
69491;SDS011;56692;52.016;4.356;2023-03-24T04:52:30;18.25;;;1.85;;
69491;SDS011;56692;52.016;4.356;2023-03-24T04:54:55;12.73;;;2.97;;
69491;SDS011;56692;52.016;4.356;2023-03-24T04:57:22;10.90;;;1.40;;
69491;SDS011;56692;52.016;4.356;2023-03-24T04:59:47;13.07;;;1.48;;
69491;SDS011;56692;52.016;4.356;2023-03-24T05:02:13;8.63;;;1.50;;
69491;SDS011;56692;52.016;4.356;2023-03-24T05:04:39;14.30;;;1.27;;
69491;SDS011;56692;52.016;4.356;2023-03-24T05:07:04;9.30;;;0.73;;
69491;SDS011;56692;52.016;4.356;2023-03-24T05:09:30;10.25;;;1.52;;
69491;SDS011;56692;52.016;4.356;2023-03-24T05:11:56;10.00;;;1.30;;
69491;SDS011;56692;52.016;4.356;2023-03-24T05:14:22;11.73;;;0.90;;
69491;SDS011;56692;52.016;4.356;2023-03-24T05:16:48;12.65;;;2.10;;
69491;SDS011;56692;52.016;4.356;2023-03-24T05:19:14;10.52;;;1.25;;
69491;SDS011;56692;52.016;4.356;2023-03-24T05:21:40;11.00;;;1.80;;
69491;SDS011;56692;52.016;4.356;2023-03-24T05:24:06;13.55;;;1.35;;
69491;SDS011;56692;52.016;4.356;2023-03-24T05:26:32;10.98;;;1.38;;
69491;SDS011;56692;52.016;4.356;2023-03-24T05:28:58;6.78;;;1.02;;
69491;SDS011;56692;52.016;4.356;2023-03-24T05:31:24;12.10;;;1.03;;
69491;SDS011;56692;52.016;4.356;2023-03-24T05:33:50;12.30;;;1.70;;
69491;SDS011;56692;52.016;4.356;2023-03-24T05:36:16;8.68;;;1.63;;
69491;SDS011;56692;52.016;4.356;2023-03-24T05:38:41;10.60;;;1.83;;
69491;SDS011;56692;52.016;4.356;2023-03-24T05:41:07;11.13;;;1.88;;
69491;SDS011;56692;52.016;4.356;2023-03-24T05:43:33;13.70;;;2.60;;
69491;SDS011;56692;52.016;4.356;2023-03-24T05:45:58;11.35;;;1.58;;
69491;SDS011;56692;52.016;4.356;2023-03-24T05:48:25;10.65;;;1.65;;
69491;SDS011;56692;52.016;4.356;2023-03-24T05:50:51;12.40;;;1.87;;
69491;SDS011;56692;52.016;4.356;2023-03-24T05:53:17;14.88;;;1.27;;
69491;SDS011;56692;52.016;4.356;2023-03-24T05:55:46;10.23;;;1.35;;
69491;SDS011;56692;52.016;4.356;2023-03-24T05:58:12;15.07;;;2.15;;
69491;SDS011;56692;52.016;4.356;2023-03-24T06:00:40;17.80;;;2.30;;
69491;SDS011;56692;52.016;4.356;2023-03-24T06:03:06;10.82;;;1.45;;
69491;SDS011;56692;52.016;4.356;2023-03-24T06:05:31;10.00;;;1.43;;
69491;SDS011;56692;52.016;4.356;2023-03-24T06:07:57;11.98;;;1.95;;
69491;SDS011;56692;52.016;4.356;2023-03-24T06:10:25;12.57;;;1.40;;
69491;SDS011;56692;52.016;4.356;2023-03-24T06:12:52;12.07;;;2.20;;
69491;SDS011;56692;52.016;4.356;2023-03-24T06:15:19;10.85;;;1.75;;
69491;SDS011;56692;52.016;4.356;2023-03-24T06:17:44;13.45;;;1.88;;
69491;SDS011;56692;52.016;4.356;2023-03-24T06:20:12;13.25;;;2.30;;
69491;SDS011;56692;52.016;4.356;2023-03-24T06:22:42;9.90;;;1.07;;
69491;SDS011;56692;52.016;4.356;2023-03-24T06:25:13;14.98;;;2.28;;
69491;SDS011;56692;52.016;4.356;2023-03-24T06:27:42;12.32;;;2.38;;
69491;SDS011;56692;52.016;4.356;2023-03-24T06:30:12;14.48;;;1.65;;
69491;SDS011;56692;52.016;4.356;2023-03-24T06:32:39;10.70;;;1.70;;
69491;SDS011;56692;52.016;4.356;2023-03-24T06:35:06;10.60;;;1.10;;
69491;SDS011;56692;52.016;4.356;2023-03-24T06:37:31;11.68;;;1.63;;
69491;SDS011;56692;52.016;4.356;2023-03-24T06:39:57;12.68;;;1.52;;
69491;SDS011;56692;52.016;4.356;2023-03-24T06:42:24;21.33;;;2.40;;
69491;SDS011;56692;52.016;4.356;2023-03-24T06:44:51;18.20;;;1.35;;
69491;SDS011;56692;52.016;4.356;2023-03-24T06:47:16;13.57;;;1.30;;
69491;SDS011;56692;52.016;4.356;2023-03-24T06:49:42;14.18;;;2.22;;
69491;SDS011;56692;52.016;4.356;2023-03-24T06:52:08;10.57;;;0.83;;
69491;SDS011;56692;52.016;4.356;2023-03-24T06:54:33;14.23;;;1.63;;
69491;SDS011;56692;52.016;4.356;2023-03-24T06:56:59;9.27;;;2.00;;
69491;SDS011;56692;52.016;4.356;2023-03-24T06:59:25;11.18;;;1.52;;
69491;SDS011;56692;52.016;4.356;2023-03-24T07:01:52;10.82;;;1.85;;
69491;SDS011;56692;52.016;4.356;2023-03-24T07:04:18;10.50;;;1.70;;
69491;SDS011;56692;52.016;4.356;2023-03-24T07:06:45;6.50;;;0.93;;
69491;SDS011;56692;52.016;4.356;2023-03-24T07:09:11;8.82;;;1.15;;
69491;SDS011;56692;52.016;4.356;2023-03-24T07:11:37;6.85;;;1.02;;
69491;SDS011;56692;52.016;4.356;2023-03-24T07:14:03;12.20;;;1.42;;
69491;SDS011;56692;52.016;4.356;2023-03-24T07:16:29;11.87;;;1.97;;
69491;SDS011;56692;52.016;4.356;2023-03-24T07:18:55;8.57;;;0.90;;
69491;SDS011;56692;52.016;4.356;2023-03-24T07:21:20;7.67;;;1.40;;
69491;SDS011;56692;52.016;4.356;2023-03-24T07:23:46;10.00;;;1.98;;
69491;SDS011;56692;52.016;4.356;2023-03-24T07:26:12;13.03;;;1.60;;
69491;SDS011;56692;52.016;4.356;2023-03-24T07:28:37;8.95;;;1.55;;
69491;SDS011;56692;52.016;4.356;2023-03-24T07:31:03;9.00;;;1.20;;
69491;SDS011;56692;52.016;4.356;2023-03-24T07:33:30;12.63;;;1.65;;
69491;SDS011;56692;52.016;4.356;2023-03-24T07:35:56;6.28;;;1.42;;
69491;SDS011;56692;52.016;4.356;2023-03-24T07:38:23;10.18;;;2.13;;
69491;SDS011;56692;52.016;4.356;2023-03-24T07:40:51;8.37;;;1.93;;
69491;SDS011;56692;52.016;4.356;2023-03-24T07:43:17;9.20;;;1.38;;
69491;SDS011;56692;52.016;4.356;2023-03-24T07:45:43;11.00;;;1.42;;
69491;SDS011;56692;52.016;4.356;2023-03-24T07:48:10;12.13;;;1.30;;
69491;SDS011;56692;52.016;4.356;2023-03-24T07:50:36;7.07;;;1.10;;
69491;SDS011;56692;52.016;4.356;2023-03-24T07:53:02;8.32;;;1.10;;
69491;SDS011;56692;52.016;4.356;2023-03-24T07:55:28;10.35;;;1.38;;
69491;SDS011;56692;52.016;4.356;2023-03-24T07:57:53;11.20;;;1.47;;
69491;SDS011;56692;52.016;4.356;2023-03-24T08:00:19;8.02;;;1.27;;
69491;SDS011;56692;52.016;4.356;2023-03-24T08:02:49;7.80;;;0.83;;
69491;SDS011;56692;52.016;4.356;2023-03-24T08:05:16;9.43;;;0.85;;
69491;SDS011;56692;52.016;4.356;2023-03-24T08:07:44;7.07;;;1.30;;
69491;SDS011;56692;52.016;4.356;2023-03-24T08:10:17;7.88;;;1.27;;
69491;SDS011;56692;52.016;4.356;2023-03-24T08:12:45;11.27;;;1.30;;
69491;SDS011;56692;52.016;4.356;2023-03-24T08:15:11;7.00;;;1.60;;
69491;SDS011;56692;52.016;4.356;2023-03-24T08:17:38;7.95;;;1.10;;
69491;SDS011;56692;52.016;4.356;2023-03-24T08:20:05;7.90;;;1.15;;
69491;SDS011;56692;52.016;4.356;2023-03-24T08:22:35;8.85;;;1.52;;
69491;SDS011;56692;52.016;4.356;2023-03-24T08:25:03;12.23;;;1.50;;
69491;SDS011;56692;52.016;4.356;2023-03-24T08:27:30;18.70;;;2.28;;
69491;SDS011;56692;52.016;4.356;2023-03-24T08:29:55;7.27;;;1.10;;
69491;SDS011;56692;52.016;4.356;2023-03-24T08:32:21;26.70;;;2.05;;
69491;SDS011;56692;52.016;4.356;2023-03-24T08:34:47;11.20;;;1.23;;
69491;SDS011;56692;52.016;4.356;2023-03-24T08:37:13;12.70;;;1.98;;
69491;SDS011;56692;52.016;4.356;2023-03-24T08:39:38;14.53;;;1.23;;
69491;SDS011;56692;52.016;4.356;2023-03-24T08:42:04;12.48;;;1.42;;
69491;SDS011;56692;52.016;4.356;2023-03-24T08:44:30;6.88;;;1.27;;
69491;SDS011;56692;52.016;4.356;2023-03-24T08:46:56;6.20;;;1.13;;
69491;SDS011;56692;52.016;4.356;2023-03-24T08:49:22;14.30;;;1.40;;
69491;SDS011;56692;52.016;4.356;2023-03-24T08:51:47;9.90;;;1.77;;
69491;SDS011;56692;52.016;4.356;2023-03-24T08:54:13;8.52;;;1.42;;
69491;SDS011;56692;52.016;4.356;2023-03-24T08:56:39;10.23;;;1.17;;
69491;SDS011;56692;52.016;4.356;2023-03-24T08:59:05;11.52;;;1.38;;
69491;SDS011;56692;52.016;4.356;2023-03-24T09:01:31;9.00;;;1.10;;
69491;SDS011;56692;52.016;4.356;2023-03-24T09:04:00;7.82;;;1.23;;
69491;SDS011;56692;52.016;4.356;2023-03-24T09:06:25;8.03;;;1.10;;
69491;SDS011;56692;52.016;4.356;2023-03-24T09:08:51;11.38;;;1.20;;
69491;SDS011;56692;52.016;4.356;2023-03-24T09:11:18;9.52;;;1.67;;
69491;SDS011;56692;52.016;4.356;2023-03-24T09:13:46;8.50;;;1.57;;
69491;SDS011;56692;52.016;4.356;2023-03-24T09:16:12;6.80;;;1.05;;
69491;SDS011;56692;52.016;4.356;2023-03-24T09:18:38;9.25;;;1.60;;
69491;SDS011;56692;52.016;4.356;2023-03-24T09:21:04;9.70;;;1.30;;
69491;SDS011;56692;52.016;4.356;2023-03-24T09:23:31;6.57;;;1.10;;
69491;SDS011;56692;52.016;4.356;2023-03-24T09:25:57;9.45;;;1.17;;
69491;SDS011;56692;52.016;4.356;2023-03-24T09:28:23;7.13;;;1.33;;
69491;SDS011;56692;52.016;4.356;2023-03-24T09:30:49;13.05;;;1.23;;
69491;SDS011;56692;52.016;4.356;2023-03-24T09:33:15;6.97;;;1.20;;
69491;SDS011;56692;52.016;4.356;2023-03-24T09:35:41;7.97;;;1.20;;
69491;SDS011;56692;52.016;4.356;2023-03-24T09:38:07;7.43;;;1.35;;
69491;SDS011;56692;52.016;4.356;2023-03-24T09:40:36;9.63;;;1.33;;
69491;SDS011;56692;52.016;4.356;2023-03-24T09:45:54;7.68;;;1.83;;
69491;SDS011;56692;52.016;4.356;2023-03-24T09:48:39;7.00;;;1.15;;
69491;SDS011;56692;52.016;4.356;2023-03-24T09:51:23;5.18;;;1.35;;
69491;SDS011;56692;52.016;4.356;2023-03-24T09:53:56;8.65;;;1.52;;
69491;SDS011;56692;52.016;4.356;2023-03-24T09:56:34;6.47;;;1.60;;
69491;SDS011;56692;52.016;4.356;2023-03-24T09:59:28;11.60;;;1.83;;
69491;SDS011;56692;52.016;4.356;2023-03-24T10:01:59;6.75;;;1.20;;
69491;SDS011;56692;52.016;4.356;2023-03-24T10:04:26;9.32;;;1.60;;
69491;SDS011;56692;52.016;4.356;2023-03-24T10:07:02;5.03;;;0.85;;
69491;SDS011;56692;52.016;4.356;2023-03-24T10:09:41;6.27;;;1.03;;
69491;SDS011;56692;52.016;4.356;2023-03-24T10:14:56;10.45;;;1.85;;
69491;SDS011;56692;52.016;4.356;2023-03-24T10:20:08;12.35;;;1.58;;
69491;SDS011;56692;52.016;4.356;2023-03-24T10:22:53;10.87;;;1.33;;
69491;SDS011;56692;52.016;4.356;2023-03-24T10:25:22;9.63;;;1.35;;
69491;SDS011;56692;52.016;4.356;2023-03-24T10:28:19;7.55;;;1.40;;
69491;SDS011;56692;52.016;4.356;2023-03-24T10:30:49;10.20;;;1.77;;
69491;SDS011;56692;52.016;4.356;2023-03-24T10:33:17;11.40;;;1.52;;
69491;SDS011;56692;52.016;4.356;2023-03-24T10:35:45;6.77;;;1.17;;
69491;SDS011;56692;52.016;4.356;2023-03-24T10:38:29;8.45;;;1.75;;
69491;SDS011;56692;52.016;4.356;2023-03-24T10:40:55;6.75;;;1.30;;
69491;SDS011;56692;52.016;4.356;2023-03-24T10:43:22;9.73;;;1.37;;
69491;SDS011;56692;52.016;4.356;2023-03-24T10:45:51;8.95;;;1.77;;
69491;SDS011;56692;52.016;4.356;2023-03-24T10:51:15;6.82;;;1.33;;
69491;SDS011;56692;52.016;4.356;2023-03-24T10:54:09;6.55;;;1.20;;
69491;SDS011;56692;52.016;4.356;2023-03-24T10:56:37;6.43;;;1.37;;
69491;SDS011;56692;52.016;4.356;2023-03-24T11:01:46;9.07;;;1.60;;
69491;SDS011;56692;52.016;4.356;2023-03-24T11:04:14;7.82;;;1.10;;
69491;SDS011;56692;52.016;4.356;2023-03-24T11:09:56;7.00;;;1.17;;
69491;SDS011;56692;52.016;4.356;2023-03-24T11:12:26;6.32;;;0.90;;
69491;SDS011;56692;52.016;4.356;2023-03-24T11:17:40;7.45;;;1.65;;
69491;SDS011;56692;52.016;4.356;2023-03-24T11:20:14;5.97;;;0.70;;
69491;SDS011;56692;52.016;4.356;2023-03-24T11:22:46;8.27;;;1.57;;
69491;SDS011;56692;52.016;4.356;2023-03-24T11:25:40;5.75;;;0.73;;
69491;SDS011;56692;52.016;4.356;2023-03-24T11:28:12;7.28;;;1.45;;
69491;SDS011;56692;52.016;4.356;2023-03-24T11:30:44;7.32;;;1.10;;
69491;SDS011;56692;52.016;4.356;2023-03-24T11:33:20;8.50;;;1.38;;
69491;SDS011;56692;52.016;4.356;2023-03-24T11:35:50;7.27;;;1.93;;
69491;SDS011;56692;52.016;4.356;2023-03-24T11:38:18;7.47;;;1.40;;
69491;SDS011;56692;52.016;4.356;2023-03-24T11:40:52;12.02;;;1.80;;
69491;SDS011;56692;52.016;4.356;2023-03-24T11:43:31;5.32;;;1.15;;
69491;SDS011;56692;52.016;4.356;2023-03-24T11:48:37;6.80;;;0.70;;
69491;SDS011;56692;52.016;4.356;2023-03-24T11:51:33;5.20;;;1.00;;
69491;SDS011;56692;52.016;4.356;2023-03-24T11:54:05;4.95;;;0.95;;
69491;SDS011;56692;52.016;4.356;2023-03-24T12:04:44;5.38;;;0.95;;
69491;SDS011;56692;52.016;4.356;2023-03-24T12:07:29;7.72;;;0.85;;
69491;SDS011;56692;52.016;4.356;2023-03-24T12:23:30;5.30;;;1.08;;
69491;SDS011;56692;52.016;4.356;2023-03-24T12:26:17;4.80;;;0.70;;
69491;SDS011;56692;52.016;4.356;2023-03-24T12:37:15;4.65;;;1.30;;
69491;SDS011;56692;52.016;4.356;2023-03-24T12:42:41;4.85;;;0.65;;
69491;SDS011;56692;52.016;4.356;2023-03-24T12:48:58;5.80;;;1.10;;
69491;SDS011;56692;52.016;4.356;2023-03-24T12:56:19;5.13;;;1.48;;
69491;SDS011;56692;52.016;4.356;2023-03-24T12:59:03;4.22;;;0.90;;
69491;SDS011;56692;52.016;4.356;2023-03-24T13:01:38;6.10;;;1.23;;
69491;SDS011;56692;52.016;4.356;2023-03-24T13:12:31;4.93;;;1.02;;
69491;SDS011;56692;52.016;4.356;2023-03-24T13:20:24;3.23;;;0.63;;
69491;SDS011;56692;52.016;4.356;2023-03-24T13:29:03;5.18;;;0.95;;
69491;SDS011;56692;52.016;4.356;2023-03-24T13:31:42;4.13;;;0.65;;
69491;SDS011;56692;52.016;4.356;2023-03-24T13:34:21;3.33;;;0.40;;
69491;SDS011;56692;52.016;4.356;2023-03-24T13:37:04;3.53;;;0.50;;
69491;SDS011;56692;52.016;4.356;2023-03-24T13:39:37;3.60;;;1.20;;
69491;SDS011;56692;52.016;4.356;2023-03-24T13:42:03;3.85;;;0.50;;
69491;SDS011;56692;52.016;4.356;2023-03-24T13:44:35;4.57;;;0.90;;
69491;SDS011;56692;52.016;4.356;2023-03-24T13:47:12;4.43;;;0.70;;
69491;SDS011;56692;52.016;4.356;2023-03-24T13:49:58;6.70;;;0.90;;
69491;SDS011;56692;52.016;4.356;2023-03-24T13:55:27;3.40;;;0.88;;
69491;SDS011;56692;52.016;4.356;2023-03-24T13:58:04;4.47;;;1.20;;
69491;SDS011;56692;52.016;4.356;2023-03-24T14:01:03;4.43;;;0.63;;
69491;SDS011;56692;52.016;4.356;2023-03-24T14:06:01;4.93;;;0.47;;
69491;SDS011;56692;52.016;4.356;2023-03-24T14:16:48;4.10;;;0.75;;
69491;SDS011;56692;52.016;4.356;2023-03-24T14:22:03;3.95;;;0.70;;
69491;SDS011;56692;52.016;4.356;2023-03-24T14:24:45;2.90;;;0.52;;
69491;SDS011;56692;52.016;4.356;2023-03-24T14:27:27;5.43;;;0.67;;
69491;SDS011;56692;52.016;4.356;2023-03-24T14:30:21;3.05;;;0.60;;
69491;SDS011;56692;52.016;4.356;2023-03-24T14:32:50;5.25;;;1.20;;
69491;SDS011;56692;52.016;4.356;2023-03-24T14:38:36;5.57;;;0.57;;
69491;SDS011;56692;52.016;4.356;2023-03-24T14:40:40;4.40;;;0.83;;
69491;SDS011;56692;52.016;4.356;2023-03-24T14:43:14;4.60;;;0.85;;
69491;SDS011;56692;52.016;4.356;2023-03-24T14:54:23;5.00;;;0.73;;
69491;SDS011;56692;52.016;4.356;2023-03-24T14:56:58;4.43;;;0.55;;
69491;SDS011;56692;52.016;4.356;2023-03-24T14:59:44;4.95;;;0.98;;
69491;SDS011;56692;52.016;4.356;2023-03-24T15:02:24;5.20;;;0.73;;
69491;SDS011;56692;52.016;4.356;2023-03-24T15:05:22;6.53;;;0.80;;
69491;SDS011;56692;52.016;4.356;2023-03-24T15:18:32;4.50;;;0.97;;
69491;SDS011;56692;52.016;4.356;2023-03-24T15:20:58;4.38;;;1.13;;
69491;SDS011;56692;52.016;4.356;2023-03-24T15:23:25;3.45;;;0.88;;
69491;SDS011;56692;52.016;4.356;2023-03-24T15:25:55;5.03;;;0.90;;
69491;SDS011;56692;52.016;4.356;2023-03-24T15:30:52;5.53;;;1.15;;
69491;SDS011;56692;52.016;4.356;2023-03-24T15:33:20;4.10;;;0.90;;
69491;SDS011;56692;52.016;4.356;2023-03-24T15:35:46;3.90;;;0.70;;
69491;SDS011;56692;52.016;4.356;2023-03-24T15:38:19;5.50;;;0.80;;
69491;SDS011;56692;52.016;4.356;2023-03-24T15:40:51;3.40;;;0.77;;
69491;SDS011;56692;52.016;4.356;2023-03-24T15:43:20;6.30;;;0.63;;
69491;SDS011;56692;52.016;4.356;2023-03-24T15:45:53;3.83;;;0.70;;
69491;SDS011;56692;52.016;4.356;2023-03-24T15:48:22;3.47;;;1.02;;
69491;SDS011;56692;52.016;4.356;2023-03-24T15:51:00;6.88;;;0.75;;
69491;SDS011;56692;52.016;4.356;2023-03-24T15:53:39;4.03;;;0.70;;
69491;SDS011;56692;52.016;4.356;2023-03-24T15:56:26;6.40;;;1.10;;
69491;SDS011;56692;52.016;4.356;2023-03-24T16:01:33;3.83;;;1.00;;
69491;SDS011;56692;52.016;4.356;2023-03-24T16:04:20;6.72;;;1.10;;
69491;SDS011;56692;52.016;4.356;2023-03-24T16:06:51;5.03;;;1.00;;
69491;SDS011;56692;52.016;4.356;2023-03-24T16:09:18;3.75;;;0.93;;
69491;SDS011;56692;52.016;4.356;2023-03-24T16:11:51;20.65;;;1.45;;
69491;SDS011;56692;52.016;4.356;2023-03-24T16:14:22;13.73;;;1.40;;
69491;SDS011;56692;52.016;4.356;2023-03-24T16:16:53;22.67;;;2.40;;
69491;SDS011;56692;52.016;4.356;2023-03-24T16:19:20;32.63;;;2.63;;
69491;SDS011;56692;52.016;4.356;2023-03-24T16:21:47;27.42;;;2.95;;
69491;SDS011;56692;52.016;4.356;2023-03-24T16:24:12;31.02;;;3.15;;
69491;SDS011;56692;52.016;4.356;2023-03-24T16:26:38;35.80;;;3.87;;
69491;SDS011;56692;52.016;4.356;2023-03-24T16:31:41;25.40;;;3.42;;
69491;SDS011;56692;52.016;4.356;2023-03-24T16:34:07;26.55;;;1.67;;
69491;SDS011;56692;52.016;4.356;2023-03-24T16:36:32;27.13;;;3.33;;
69491;SDS011;56692;52.016;4.356;2023-03-24T16:38:58;23.77;;;2.50;;
69491;SDS011;56692;52.016;4.356;2023-03-24T16:41:25;24.45;;;1.95;;
69491;SDS011;56692;52.016;4.356;2023-03-24T16:43:52;21.42;;;2.47;;
69491;SDS011;56692;52.016;4.356;2023-03-24T16:48:50;14.30;;;2.10;;
69491;SDS011;56692;52.016;4.356;2023-03-24T16:51:16;16.92;;;1.83;;
69491;SDS011;56692;52.016;4.356;2023-03-24T16:53:42;11.20;;;1.73;;
69491;SDS011;56692;52.016;4.356;2023-03-24T16:56:11;15.20;;;3.13;;
69491;SDS011;56692;52.016;4.356;2023-03-24T16:58:38;7.50;;;1.38;;
69491;SDS011;56692;52.016;4.356;2023-03-24T17:01:14;12.25;;;2.03;;
69491;SDS011;56692;52.016;4.356;2023-03-24T17:03:50;8.97;;;1.07;;
69491;SDS011;56692;52.016;4.356;2023-03-24T17:06:39;11.13;;;1.33;;
69491;SDS011;56692;52.016;4.356;2023-03-24T17:09:06;11.15;;;1.83;;
69491;SDS011;56692;52.016;4.356;2023-03-24T17:11:36;11.27;;;1.67;;
69491;SDS011;56692;52.016;4.356;2023-03-24T17:14:04;6.88;;;1.17;;
69491;SDS011;56692;52.016;4.356;2023-03-24T17:16:32;11.87;;;1.47;;
69491;SDS011;56692;52.016;4.356;2023-03-24T17:19:02;10.40;;;1.13;;
69491;SDS011;56692;52.016;4.356;2023-03-24T17:21:29;8.60;;;1.42;;
69491;SDS011;56692;52.016;4.356;2023-03-24T17:23:58;8.80;;;1.25;;
69491;SDS011;56692;52.016;4.356;2023-03-24T17:26:24;11.25;;;1.60;;
69491;SDS011;56692;52.016;4.356;2023-03-24T17:28:50;11.57;;;1.63;;
69491;SDS011;56692;52.016;4.356;2023-03-24T17:31:16;9.07;;;1.35;;
69491;SDS011;56692;52.016;4.356;2023-03-24T17:33:42;10.43;;;1.20;;
69491;SDS011;56692;52.016;4.356;2023-03-24T17:36:12;7.97;;;1.33;;
69491;SDS011;56692;52.016;4.356;2023-03-24T17:38:40;15.90;;;1.92;;
69491;SDS011;56692;52.016;4.356;2023-03-24T17:41:07;10.05;;;1.30;;
69491;SDS011;56692;52.016;4.356;2023-03-24T17:43:34;4.75;;;1.00;;
69491;SDS011;56692;52.016;4.356;2023-03-24T17:46:00;9.27;;;1.37;;
69491;SDS011;56692;52.016;4.356;2023-03-24T17:48:27;9.13;;;1.67;;
69491;SDS011;56692;52.016;4.356;2023-03-24T17:50:53;7.00;;;1.15;;
69491;SDS011;56692;52.016;4.356;2023-03-24T17:53:22;11.13;;;0.73;;
69491;SDS011;56692;52.016;4.356;2023-03-24T17:55:52;7.93;;;1.15;;
69491;SDS011;56692;52.016;4.356;2023-03-24T17:58:22;10.53;;;1.13;;
69491;SDS011;56692;52.016;4.356;2023-03-24T18:00:50;10.38;;;1.73;;
69491;SDS011;56692;52.016;4.356;2023-03-24T18:03:16;7.53;;;1.23;;
69491;SDS011;56692;52.016;4.356;2023-03-24T18:05:42;9.93;;;1.37;;
69491;SDS011;56692;52.016;4.356;2023-03-24T18:08:08;6.45;;;1.25;;